Time;durP1;ratioP1;P1;durP2;ratioP2;P2;SDS_P1;SDS_P2;PMS_P1;PMS_P2;Temp;Humidity;BMP_temperature;BMP_pressure;BME280_temperature;BME280_humidity;BME280_pressure;Samples;Min_cycle;Max_cycle;Signal;HPM_P1;HPM_P2
2021/11/26 00:01:33;;;;;;;6.93;5.50;;;17.70;54.30;;;;;;5008117;28;20644;-62
2021/11/26 00:04:00;;;;;;;11.48;5.38;;;17.70;54.30;;;;;;5008245;28;20045;-62
2021/11/26 00:06:26;;;;;;;7.00;5.60;;;17.70;54.10;;;;;;5008103;28;20080;-62
2021/11/26 00:08:52;;;;;;;7.10;5.95;;;17.70;54.10;;;;;;4990173;28;20050;-62
2021/11/26 00:11:17;;;;;;;7.07;5.10;;;17.70;54.00;;;;;;5007488;28;20040;-62
2021/11/26 00:13:48;;;;;;;8.60;5.30;;;17.70;53.90;;;;;;4990070;28;20026;-63
2021/11/26 00:16:18;;;;;;;7.63;5.20;;;17.70;53.80;;;;;;5008329;28;20046;-62
2021/11/26 00:18:48;;;;;;;7.40;5.55;;;17.80;53.80;;;;;;4987187;28;20536;-62
2021/11/26 00:21:13;;;;;;;7.80;5.18;;;17.80;53.80;;;;;;5008213;28;20118;-62
2021/11/26 00:23:39;;;;;;;5.65;5.03;;;17.70;53.70;;;;;;5008127;28;20077;-62
2021/11/26 00:26:04;;;;;;;4.68;4.28;;;17.70;53.70;;;;;;5008014;28;20088;-61
2021/11/26 00:28:30;;;;;;;6.32;4.90;;;17.70;53.60;;;;;;5007548;28;20022;-61
2021/11/26 00:30:55;;;;;;;7.10;4.63;;;17.80;53.70;;;;;;5007460;28;20615;-62
2021/11/26 00:33:21;;;;;;;8.57;4.97;;;17.70;53.50;;;;;;5007513;28;20105;-62
2021/11/26 00:35:47;;;;;;;5.47;4.82;;;17.70;53.70;;;;;;5007305;28;20105;-62
2021/11/26 00:38:13;;;;;;;6.13;4.88;;;17.60;53.90;;;;;;5007298;28;20018;-62
2021/11/26 00:40:38;;;;;;;6.68;5.05;;;17.60;54.00;;;;;;4989394;28;20046;-62
2021/11/26 00:43:04;;;;;;;5.43;4.20;;;17.60;54.10;;;;;;5007521;28;20034;-62
2021/11/26 00:45:29;;;;;;;4.90;4.38;;;17.60;54.10;;;;;;5007496;28;20743;-60
2021/11/26 00:47:55;;;;;;;5.03;4.30;;;17.60;54.30;;;;;;5008311;28;20025;-62
2021/11/26 00:50:20;;;;;;;7.45;4.60;;;17.60;54.30;;;;;;5008631;28;20034;-62
2021/11/26 00:52:46;;;;;;;5.22;4.13;;;17.60;54.30;;;;;;5007427;28;20033;-62
2021/11/26 00:55:12;;;;;;;5.35;4.47;;;17.60;54.30;;;;;;5007333;28;20045;-62
2021/11/26 00:57:38;;;;;;;4.90;4.43;;;17.60;54.40;;;;;;5007080;28;20045;-62
2021/11/26 01:00:08;;;;;;;4.97;4.15;;;17.60;54.40;;;;;;5007198;28;20504;-62
2021/11/26 01:02:34;;;;;;;4.30;3.90;;;17.60;54.40;;;;;;5007068;28;20014;-61
2021/11/26 01:05:00;;;;;;;4.03;3.50;;;17.60;54.40;;;;;;5006521;28;20034;-62
2021/11/26 01:07:25;;;;;;;4.80;4.30;;;17.50;54.40;;;;;;5007000;28;20029;-61
2021/11/26 01:09:51;;;;;;;4.70;3.63;;;17.50;54.50;;;;;;5007853;28;20045;-61
2021/11/26 01:12:16;;;;;;;4.57;3.90;;;17.50;54.50;;;;;;5007980;28;20042;-61
2021/11/26 01:14:42;;;;;;;4.82;3.72;;;17.50;54.50;;;;;;5009012;28;20084;-62
2021/11/26 01:17:07;;;;;;;5.13;4.38;;;17.50;54.50;;;;;;4990056;28;20025;-62
2021/11/26 01:19:33;;;;;;;4.82;3.40;;;17.50;54.60;;;;;;5007911;28;20077;-61
2021/11/26 01:21:58;;;;;;;4.47;3.97;;;17.40;54.50;;;;;;5006539;28;20061;-62
2021/11/26 01:24:24;;;;;;;5.80;4.07;;;17.40;54.40;;;;;;5006842;28;20037;-62
2021/11/26 01:26:49;;;;;;;4.15;3.70;;;17.40;54.40;;;;;;5007003;28;20511;-62
2021/11/26 01:29:14;;;;;;;6.00;4.68;;;17.40;54.40;;;;;;5006142;28;20030;-62
2021/11/26 01:31:41;;;;;;;4.70;3.90;;;17.40;54.40;;;;;;5006276;28;20029;-62
2021/11/26 01:34:08;;;;;;;4.82;3.70;;;17.40;54.40;;;;;;5006460;28;20030;-58
2021/11/26 01:36:34;;;;;;;4.90;4.10;;;17.40;54.40;;;;;;5006239;28;20511;-62
2021/11/26 01:38:59;;;;;;;3.95;3.38;;;17.40;54.40;;;;;;5006447;28;20021;-62
2021/11/26 01:41:25;;;;;;;5.15;4.10;;;17.40;54.20;;;;;;5006578;28;20029;-62
2021/11/26 01:43:50;;;;;;;4.60;3.78;;;17.40;54.20;;;;;;4988708;28;20033;-61
2021/11/26 01:46:16;;;;;;;7.50;3.78;;;17.40;54.20;;;;;;4988737;28;20042;-61
2021/11/26 01:48:42;;;;;;;4.15;3.72;;;17.40;54.10;;;;;;5006532;28;20488;-62
2021/11/26 01:51:07;;;;;;;4.30;3.90;;;17.40;54.00;;;;;;5006337;28;20128;-62
2021/11/26 01:53:33;;;;;;;4.32;3.92;;;17.40;54.00;;;;;;5006709;28;20030;-61
2021/11/26 01:55:59;;;;;;;3.80;3.40;;;17.30;54.00;;;;;;5007368;28;20033;-60
2021/11/26 01:58:24;;;;;;;4.47;3.70;;;17.30;53.90;;;;;;5005332;28;20022;-61
2021/11/26 02:00:50;;;;;;;4.65;3.80;;;17.30;53.90;;;;;;5008875;28;20028;-60
2021/11/26 02:03:16;;;;;;;3.90;3.60;;;17.30;53.90;;;;;;5005914;28;20026;-60
2021/11/26 02:05:42;;;;;;;5.22;3.85;;;17.30;53.90;;;;;;5007696;28;20022;-60
2021/11/26 02:08:07;;;;;;;3.47;3.17;;;17.30;54.00;;;;;;4990413;28;20033;-61
2021/11/26 02:10:33;;;;;;;3.72;3.42;;;17.30;54.00;;;;;;4973555;28;20147;-62
2021/11/26 02:12:58;;;;;;;4.15;3.47;;;17.20;54.20;;;;;;5007721;28;20022;-61
2021/11/26 02:15:25;;;;;;;4.00;3.60;;;17.20;54.90;;;;;;5010378;28;20018;-62
2021/11/26 02:17:52;;;;;;;3.50;3.20;;;17.20;54.40;;;;;;5005272;28;20017;-61
2021/11/26 02:20:19;;;;;;;4.30;3.90;;;17.30;54.40;;;;;;5005512;28;20026;-62
2021/11/26 02:22:45;;;;;;;5.40;3.75;;;17.30;54.30;;;;;;5005772;28;20097;-61
2021/11/26 02:25:11;;;;;;;4.47;3.80;;;17.40;54.20;;;;;;5005442;28;20014;-61
2021/11/26 02:27:37;;;;;;;4.38;3.45;;;17.50;53.90;;;;;;5005161;28;20109;-62
2021/11/26 02:30:16;;;;;;;4.65;3.15;;;17.60;53.80;;;;;;4987012;28;20061;-61
2021/11/26 02:32:43;;;;;;;3.10;2.80;;;17.60;53.80;;;;;;5005378;28;20022;-62
2021/11/26 02:35:09;;;;;;;3.63;3.33;;;17.70;53.90;;;;;;5005377;28;20084;-62
2021/11/26 02:37:35;;;;;;;4.32;3.38;;;17.70;53.90;;;;;;5005691;28;20480;-61
2021/11/26 02:40:01;;;;;;;3.90;3.20;;;17.70;53.90;;;;;;5005352;28;20025;-61
2021/11/26 02:42:27;;;;;;;3.42;2.78;;;17.80;53.90;;;;;;5004443;28;20113;-60
2021/11/26 02:44:52;;;;;;;4.28;3.25;;;17.90;53.90;;;;;;5005485;28;20037;-61
2021/11/26 02:47:18;;;;;;;2.95;2.67;;;17.90;53.90;;;;;;5005793;28;20042;-61
2021/11/26 02:49:43;;;;;;;2.80;2.47;;;17.90;53.80;;;;;;5005107;28;20092;-61
2021/11/26 02:52:09;;;;;;;3.08;2.65;;;18.00;53.80;;;;;;5005271;28;20449;-62
2021/11/26 02:54:34;;;;;;;2.83;2.50;;;18.00;53.80;;;;;;5004464;28;20107;-62
2021/11/26 02:57:00;;;;;;;2.97;2.53;;;18.00;53.80;;;;;;5005128;28;20053;-62
2021/11/26 02:59:25;;;;;;;2.83;2.63;;;18.00;53.80;;;;;;5004596;28;20025;-61
2021/11/26 03:01:51;;;;;;;4.53;3.03;;;18.10;53.80;;;;;;4987278;28;20037;-62
2021/11/26 03:04:16;;;;;;;3.03;2.72;;;18.10;53.90;;;;;;5004887;28;20045;-62
2021/11/26 03:06:41;;;;;;;4.38;2.83;;;18.10;53.90;;;;;;5004402;28;20033;-61
2021/11/26 03:09:07;;;;;;;3.03;2.72;;;18.10;53.90;;;;;;5004926;28;20125;-62
2021/11/26 03:11:32;;;;;;;3.00;2.70;;;18.10;53.90;;;;;;4971184;28;985097;-62
2021/11/26 03:13:58;;;;;;;3.25;2.92;;;18.10;53.90;;;;;;5005639;28;20095;-62
2021/11/26 03:16:24;;;;;;;3.00;2.70;;;18.10;54.00;;;;;;5005419;28;20030;-61
2021/11/26 03:18:49;;;;;;;2.72;2.53;;;18.00;53.90;;;;;;5005674;28;20032;-62
2021/11/26 03:21:15;;;;;;;2.90;2.60;;;18.00;53.80;;;;;;5006317;28;20033;-62
2021/11/26 03:23:40;;;;;;;2.95;2.70;;;18.00;53.80;;;;;;5009584;28;20044;-61
2021/11/26 03:26:05;;;;;;;3.08;2.58;;;18.00;53.80;;;;;;5009527;28;20022;-61
2021/11/26 03:28:31;;;;;;;3.83;3.08;;;18.00;53.80;;;;;;5009332;28;20030;-61
2021/11/26 03:30:56;;;;;;;3.72;2.97;;;18.00;53.70;;;;;;5009733;28;20061;-61
2021/11/26 03:33:22;;;;;;;3.65;3.10;;;18.00;53.70;;;;;;5009733;28;20053;-62
2021/11/26 03:35:48;;;;;;;3.13;2.83;;;18.00;53.60;;;;;;5009481;28;20545;-61
2021/11/26 03:38:13;;;;;;;3.20;2.70;;;18.00;53.50;;;;;;5011340;28;20109;-62
2021/11/26 03:40:39;;;;;;;4.25;3.15;;;18.00;53.50;;;;;;5009715;28;20026;-61
2021/11/26 03:43:04;;;;;;;3.72;3.22;;;18.00;53.50;;;;;;5009138;28;20026;-62
2021/11/26 03:45:30;;;;;;;3.35;3.03;;;17.90;53.50;;;;;;5009330;28;20034;-62
2021/11/26 03:47:56;;;;;;;3.28;2.97;;;17.90;53.40;;;;;;5007074;28;20018;-59
2021/11/26 03:50:23;;;;;;;3.47;3.00;;;17.90;53.50;;;;;;5007097;28;20105;-61
2021/11/26 03:52:49;;;;;;;3.42;2.95;;;17.90;53.50;;;;;;5007443;28;20018;-61
2021/11/26 03:55:16;;;;;;;3.42;3.13;;;17.80;53.30;;;;;;5007537;28;20088;-60
2021/11/26 03:57:42;;;;;;;3.22;2.92;;;17.80;53.30;;;;;;5006974;28;20662;-59
2021/11/26 04:00:08;;;;;;;3.63;3.15;;;17.80;53.30;;;;;;5007145;28;20048;-60
2021/11/26 04:02:33;;;;;;;3.20;2.90;;;17.80;53.20;;;;;;5007693;28;20022;-56
2021/11/26 04:04:59;;;;;;;4.10;3.10;;;17.80;53.20;;;;;;5008538;28;20037;-55
2021/11/26 04:07:24;;;;;;;3.35;3.05;;;17.80;53.10;;;;;;5008315;28;20026;-61
2021/11/26 04:09:50;;;;;;;3.58;3.28;;;17.80;52.90;;;;;;5008582;28;20514;-59
2021/11/26 04:12:16;;;;;;;3.63;3.33;;;17.80;52.90;;;;;;5008020;28;20033;-61
2021/11/26 04:14:42;;;;;;;3.35;3.05;;;17.80;52.80;;;;;;5008725;28;20029;-56
2021/11/26 04:17:10;;;;;;;4.47;3.55;;;17.80;53.00;;;;;;5008328;28;20030;-53
2021/11/26 04:19:37;;;;;;;3.85;3.55;;;17.80;52.90;;;;;;4990924;28;20025;-53
2021/11/26 04:22:02;;;;;;;3.50;3.20;;;17.70;52.80;;;;;;5008030;28;20026;-55
2021/11/26 04:24:28;;;;;;;3.03;2.78;;;17.70;52.90;;;;;;5008729;28;20049;-61
2021/11/26 04:26:53;;;;;;;3.38;3.08;;;17.70;52.90;;;;;;5008000;28;20037;-56
2021/11/26 04:29:19;;;;;;;3.20;2.90;;;17.70;52.80;;;;;;5008203;28;20461;-61
2021/11/26 04:31:44;;;;;;;3.30;2.78;;;17.70;52.80;;;;;;5008108;28;20033;-60
2021/11/26 04:34:10;;;;;;;3.47;3.13;;;17.60;52.80;;;;;;4974001;28;20095;-53
2021/11/26 04:36:35;;;;;;;3.35;3.08;;;17.60;52.90;;;;;;4990549;28;20093;-61
2021/11/26 04:39:02;;;;;;;3.40;2.97;;;17.60;53.00;;;;;;4990539;28;20064;-54
2021/11/26 04:41:27;;;;;;;6.28;3.00;;;17.60;53.00;;;;;;5007796;28;20084;-61
2021/11/26 04:43:53;;;;;;;3.25;2.95;;;17.60;53.10;;;;;;5007746;28;20489;-60
2021/11/26 04:46:18;;;;;;;3.47;2.55;;;17.50;53.20;;;;;;5007915;28;20034;-59
2021/11/26 04:48:44;;;;;;;2.63;2.40;;;17.50;53.30;;;;;;5007461;28;20037;-55
2021/11/26 04:51:09;;;;;;;3.60;2.90;;;17.50;53.50;;;;;;5007907;28;20018;-60
2021/11/26 04:53:35;;;;;;;3.72;2.80;;;17.60;53.60;;;;;;5007747;28;20022;-61
2021/11/26 04:56:00;;;;;;;3.17;2.88;;;17.60;53.50;;;;;;5007757;28;20511;-54
2021/11/26 04:58:26;;;;;;;3.25;3.00;;;17.60;53.40;;;;;;5007993;28;20488;-52
2021/11/26 05:00:51;;;;;;;3.35;2.60;;;17.70;53.40;;;;;;5008572;28;20029;-54
2021/11/26 05:03:17;;;;;;;3.25;2.92;;;17.80;53.40;;;;;;5008533;28;20484;-55
2021/11/26 05:05:42;;;;;;;4.75;2.75;;;17.80;53.30;;;;;;5007625;28;20033;-61
2021/11/26 05:08:08;;;;;;;3.03;2.70;;;17.90;53.30;;;;;;5007292;28;20690;-52
2021/11/26 05:10:33;;;;;;;3.20;2.72;;;17.90;53.40;;;;;;5007135;28;20038;-56
2021/11/26 05:12:59;;;;;;;2.67;2.35;;;17.90;53.40;;;;;;5014178;23;20378;-53
2021/11/26 05:15:26;;;;;;;4.00;2.60;;;18.00;53.30;;;;;;5001244;28;20084;-56
2021/11/26 05:17:52;;;;;;;4.03;2.60;;;18.00;53.30;;;;;;4994680;28;20037;-59
2021/11/26 05:20:18;;;;;;;2.47;2.28;;;18.00;53.40;;;;;;5000783;28;20116;-56
2021/11/26 05:22:43;;;;;;;2.55;2.30;;;18.10;53.40;;;;;;5002162;28;20112;-55
2021/11/26 05:25:09;;;;;;;2.45;2.22;;;18.10;53.40;;;;;;5001325;28;20105;-53
2021/11/26 05:27:35;;;;;;;3.42;2.20;;;18.10;53.40;;;;;;5000715;28;20092;-58
2021/11/26 05:30:00;;;;;;;4.57;2.65;;;18.10;53.40;;;;;;5000740;28;20038;-54
2021/11/26 05:32:26;;;;;;;2.97;2.28;;;18.10;53.40;;;;;;4999117;28;20033;-58
2021/11/26 05:34:51;;;;;;;3.50;2.90;;;18.10;53.40;;;;;;5001334;28;20481;-56
2021/11/26 05:37:17;;;;;;;5.47;3.53;;;18.10;53.40;;;;;;4999928;28;20029;-54
2021/11/26 05:39:42;;;;;;;6.68;4.32;;;18.10;53.40;;;;;;5002371;28;20072;-58
2021/11/26 05:42:08;;;;;;;7.93;5.03;;;18.10;53.40;;;;;;5000737;28;20029;-54
2021/11/26 05:44:33;;;;;;;8.20;5.50;;;18.10;53.40;;;;;;4998675;28;20113;-58
2021/11/26 05:46:59;;;;;;;9.68;5.18;;;18.10;53.40;;;;;;5000851;28;20759;-58
2021/11/26 05:49:24;;;;;;;8.48;5.82;;;18.10;53.40;;;;;;5001590;28;20037;-56
2021/11/26 05:51:50;;;;;;;9.40;5.47;;;18.10;53.50;;;;;;5000375;28;20030;-55
2021/11/26 05:54:15;;;;;;;10.88;5.35;;;18.10;53.60;;;;;;5006668;28;20030;-57
2021/11/26 05:56:41;;;;;;;7.45;5.45;;;18.10;53.50;;;;;;4994374;28;20593;-59
2021/11/26 05:59:07;;;;;;;10.90;5.40;;;18.10;53.50;;;;;;5000885;28;20034;-58
2021/11/26 06:01:32;;;;;;;7.78;4.88;;;18.10;53.50;;;;;;5000999;28;20026;-56
2021/11/26 06:03:58;;;;;;;12.43;5.15;;;18.10;53.50;;;;;;5000069;28;20026;-59
2021/11/26 06:06:23;;;;;;;8.02;4.82;;;18.10;54.20;;;;;;5001341;28;20057;-56
2021/11/26 06:08:49;;;;;;;8.80;4.97;;;18.10;53.50;;;;;;5000102;28;20420;-53
2021/11/26 06:11:14;;;;;;;11.13;4.93;;;18.00;53.50;;;;;;5001377;28;20041;-54
2021/11/26 06:13:40;;;;;;;8.85;4.55;;;18.00;53.60;;;;;;4997543;28;20542;-57
2021/11/26 06:16:06;;;;;;;15.20;4.95;;;18.00;53.60;;;;;;4996267;28;20459;-57
2021/11/26 06:18:31;;;;;;;13.18;5.28;;;18.00;53.60;;;;;;5000597;28;20111;-57
2021/11/26 06:20:57;;;;;;;9.05;5.03;;;17.90;53.60;;;;;;5000118;28;20030;-60
2021/11/26 06:23:22;;;;;;;11.82;5.43;;;17.90;53.80;;;;;;5002259;28;20053;-58
2021/11/26 06:25:48;;;;;;;14.30;5.25;;;17.90;53.80;;;;;;4998140;28;20026;-57
2021/11/26 06:28:13;;;;;;;8.13;4.82;;;17.90;53.80;;;;;;5000374;28;20029;-61
2021/11/26 06:30:39;;;;;;;12.50;4.93;;;17.90;53.80;;;;;;4999546;28;20045;-57
2021/11/26 06:33:05;;;;;;;11.80;5.00;;;17.90;53.70;;;;;;5000093;28;20040;-58
2021/11/26 06:35:30;;;;;;;8.38;5.25;;;17.90;53.70;;;;;;4999306;28;20034;-57
2021/11/26 06:37:56;;;;;;;7.45;4.95;;;17.80;53.60;;;;;;4999006;28;20668;-55
2021/11/26 06:40:22;;;;;;;9.98;4.80;;;17.80;53.50;;;;;;5000061;28;20727;-60
2021/11/26 06:42:47;;;;;;;10.00;5.30;;;17.80;53.50;;;;;;5000036;28;20091;-57
2021/11/26 06:45:13;;;;;;;10.98;5.75;;;17.90;53.50;;;;;;5001131;28;20132;-57
2021/11/26 06:47:39;;;;;;;11.60;7.53;;;17.90;53.50;;;;;;4999992;28;20034;-56
2021/11/26 06:50:06;;;;;;;13.77;7.85;;;17.90;53.70;;;;;;4998322;28;20026;-58
2021/11/26 06:52:31;;;;;;;12.68;8.15;;;17.90;53.60;;;;;;4998561;28;20408;-59
2021/11/26 06:54:57;;;;;;;14.80;7.63;;;17.80;53.30;;;;;;5000301;28;20038;-58
2021/11/26 06:57:22;;;;;;;12.18;8.05;;;17.80;53.00;;;;;;5003380;28;20029;-60
2021/11/26 06:59:48;;;;;;;14.18;7.53;;;17.80;53.30;;;;;;5006419;28;20026;-59
2021/11/26 07:02:13;;;;;;;19.33;7.30;;;17.80;52.60;;;;;;5005570;28;20025;-56
2021/11/26 07:04:42;;;;;;;11.75;6.72;;;17.70;52.50;;;;;;5006370;28;20038;-60
2021/11/26 07:07:08;;;;;;;13.50;7.07;;;17.80;52.40;;;;;;4982108;28;20042;-57
2021/11/26 07:09:33;;;;;;;13.98;7.28;;;17.80;52.40;;;;;;5005804;28;20025;-58
2021/11/26 07:11:59;;;;;;;12.13;6.80;;;17.80;52.70;;;;;;5005883;28;20513;-59
2021/11/26 07:14:25;;;;;;;11.20;6.32;;;17.80;52.90;;;;;;5004880;28;20034;-58
2021/11/26 07:16:50;;;;;;;19.45;6.30;;;17.70;52.90;;;;;;5007101;28;20683;-58
2021/11/26 07:19:16;;;;;;;11.95;5.70;;;17.70;53.00;;;;;;5004089;28;20042;-56
2021/11/26 07:21:41;;;;;;;9.45;5.50;;;17.60;53.00;;;;;;5004618;28;20026;-58
2021/11/26 07:24:07;;;;;;;8.00;5.60;;;17.60;53.80;;;;;;5006198;28;20042;-58
2021/11/26 07:26:32;;;;;;;9.68;5.05;;;17.60;53.30;;;;;;5005336;28;20045;-55
2021/11/26 07:28:58;;;;;;;11.60;5.20;;;17.60;53.30;;;;;;5006027;28;20503;-58
2021/11/26 07:31:23;;;;;;;10.07;4.80;;;17.50;53.40;;;;;;5005729;28;20034;-60
2021/11/26 07:33:49;;;;;;;8.20;4.25;;;17.50;53.40;;;;;;5005617;28;20358;-58
2021/11/26 07:36:14;;;;;;;7.97;4.85;;;17.50;53.50;;;;;;5005089;28;20268;-59
2021/11/26 07:38:40;;;;;;;7.15;4.18;;;17.50;53.70;;;;;;5004652;28;20122;-59
2021/11/26 07:41:05;;;;;;;6.82;4.00;;;17.50;53.70;;;;;;5005050;28;20030;-58
2021/11/26 07:43:31;;;;;;;7.95;4.65;;;17.50;53.70;;;;;;5001500;28;20038;-59
2021/11/26 07:45:57;;;;;;;6.95;4.22;;;17.60;53.60;;;;;;5005294;28;20034;-59
2021/11/26 07:48:23;;;;;;;7.72;3.92;;;17.60;53.30;;;;;;5004450;28;20038;-58
2021/11/26 07:50:48;;;;;;;6.28;4.43;;;17.70;53.30;;;;;;5004813;28;20030;-59
2021/11/26 07:53:14;;;;;;;9.10;4.78;;;17.80;53.20;;;;;;5006931;28;20032;-57
2021/11/26 07:55:40;;;;;;;8.35;3.78;;;17.80;53.00;;;;;;5006169;28;20088;-56
2021/11/26 07:58:07;;;;;;;4.82;3.80;;;17.90;53.00;;;;;;5003991;28;20125;-54
2021/11/26 08:00:33;;;;;;;4.28;3.88;;;17.90;52.90;;;;;;5003857;28;20056;-57
2021/11/26 08:03:01;;;;;;;7.25;3.80;;;17.90;52.90;;;;;;5005898;28;20535;-57
2021/11/26 08:05:28;;;;;;;6.20;3.28;;;17.90;52.90;;;;;;5006091;28;20026;-55
2021/11/26 08:07:53;;;;;;;5.63;3.72;;;17.90;53.00;;;;;;5004488;28;20343;-57
2021/11/26 08:10:19;;;;;;;9.50;3.88;;;17.90;53.00;;;;;;5002405;28;20121;-54
2021/11/26 08:12:44;;;;;;;5.40;3.35;;;17.90;53.00;;;;;;5002749;28;20499;-59
2021/11/26 08:15:11;;;;;;;5.47;3.40;;;18.00;53.10;;;;;;5003397;28;20136;-58
2021/11/26 08:17:36;;;;;;;5.15;3.78;;;18.00;53.00;;;;;;5002103;28;20566;-61
2021/11/26 08:20:03;;;;;;;4.65;3.45;;;18.00;53.00;;;;;;5001602;28;20121;-56
2021/11/26 08:22:29;;;;;;;4.57;2.92;;;18.00;53.00;;;;;;5001053;28;20033;-59
2021/11/26 08:24:54;;;;;;;3.92;2.78;;;18.00;53.00;;;;;;5001969;28;20109;-56
2021/11/26 08:27:20;;;;;;;5.30;2.92;;;18.10;53.00;;;;;;5002722;28;20018;-57
2021/11/26 08:29:45;;;;;;;5.57;3.53;;;18.10;53.00;;;;;;5003391;28;20092;-57
2021/11/26 08:32:11;;;;;;;4.72;3.05;;;18.10;53.00;;;;;;5000363;28;20112;-56
2021/11/26 08:34:36;;;;;;;4.03;3.10;;;18.10;53.00;;;;;;5000726;28;22058;-58
2021/11/26 08:37:02;;;;;;;5.03;3.13;;;18.00;52.90;;;;;;5003352;28;20411;-58
2021/11/26 08:39:27;;;;;;;4.15;2.45;;;18.00;52.90;;;;;;5001922;28;20026;-57
2021/11/26 08:41:53;;;;;;;3.15;2.80;;;18.00;53.00;;;;;;5001372;28;20103;-59
2021/11/26 08:44:18;;;;;;;4.50;3.05;;;18.00;53.00;;;;;;5000003;28;20057;-57
2021/11/26 08:46:44;;;;;;;4.20;2.78;;;18.00;53.00;;;;;;5003036;28;20050;-60
2021/11/26 08:49:09;;;;;;;6.55;3.10;;;18.00;52.90;;;;;;5001973;28;20028;-60
2021/11/26 08:51:38;;;;;;;4.20;3.25;;;18.00;52.90;;;;;;5000039;28;20418;-57
2021/11/26 08:54:04;;;;;;;4.20;2.88;;;18.00;52.80;;;;;;5001646;28;20050;-58
2021/11/26 08:56:30;;;;;;;3.38;2.60;;;18.00;52.80;;;;;;5001777;28;20084;-60
2021/11/26 08:58:55;;;;;;;2.65;2.17;;;18.00;52.70;;;;;;5002808;28;20554;-57
2021/11/26 09:01:21;;;;;;;3.17;2.78;;;18.00;52.70;;;;;;5002634;28;20092;-58
2021/11/26 09:03:47;;;;;;;2.90;2.60;;;18.00;52.70;;;;;;5002138;28;20022;-55
2021/11/26 09:06:20;;;;;;;4.18;3.00;;;18.00;52.70;;;;;;4992159;28;20114;-58
2021/11/26 09:08:45;;;;;;;3.15;2.63;;;18.00;52.70;;;;;;5002330;28;20026;-58
2021/11/26 09:11:11;;;;;;;3.97;2.30;;;17.90;52.70;;;;;;5002358;28;20038;-59
2021/11/26 09:13:36;;;;;;;2.65;2.42;;;17.90;52.80;;;;;;5000994;28;20042;-59
2021/11/26 09:16:02;;;;;;;2.72;2.10;;;17.90;52.80;;;;;;5002948;28;20034;-56
2021/11/26 09:18:28;;;;;;;4.32;2.58;;;17.90;52.90;;;;;;5001416;28;20030;-60
2021/11/26 09:20:54;;;;;;;3.47;2.40;;;17.90;52.80;;;;;;4999168;28;20023;-60
2021/11/26 09:23:20;;;;;;;2.42;2.05;;;17.90;52.80;;;;;;5002202;28;20369;-59
2021/11/26 09:25:45;;;;;;;3.67;2.60;;;17.90;52.80;;;;;;4999337;28;20714;-58
2021/11/26 09:28:11;;;;;;;2.78;2.42;;;17.90;52.80;;;;;;5000672;28;20542;-61
2021/11/26 09:30:36;;;;;;;3.10;2.80;;;17.90;52.80;;;;;;5000852;28;20053;-58
2021/11/26 09:33:02;;;;;;;2.72;2.40;;;17.80;52.70;;;;;;4995984;28;20061;-60
2021/11/26 09:35:28;;;;;;;3.22;2.60;;;17.90;52.80;;;;;;5002391;28;20520;-59
2021/11/26 09:37:53;;;;;;;2.78;2.30;;;17.80;52.80;;;;;;5002972;28;20526;-58
2021/11/26 09:40:19;;;;;;;4.32;2.45;;;17.80;52.70;;;;;;5002198;28;20018;-56
2021/11/26 09:42:44;;;;;;;2.72;2.00;;;17.80;52.80;;;;;;5002757;28;20026;-56
2021/11/26 09:45:13;;;;;;;2.88;2.25;;;17.80;52.70;;;;;;5002427;28;20037;-57
2021/11/26 09:47:39;;;;;;;3.60;2.50;;;17.80;52.80;;;;;;5002764;28;20115;-57
2021/11/26 09:50:04;;;;;;;3.75;2.67;;;17.80;52.80;;;;;;5002301;28;20499;-60
2021/11/26 09:52:30;;;;;;;4.28;2.40;;;17.70;52.70;;;;;;5001931;28;20041;-58
2021/11/26 09:54:55;;;;;;;2.28;1.85;;;17.70;52.80;;;;;;5002738;28;20079;-55
2021/11/26 09:57:21;;;;;;;2.47;2.28;;;17.70;52.80;;;;;;5001696;28;20076;-57
2021/11/26 09:59:47;;;;;;;3.55;2.15;;;17.70;52.80;;;;;;5002697;28;20030;-61
2021/11/26 10:02:17;;;;;;;4.15;2.40;;;17.70;52.80;;;;;;5017290;28;20698;-61
2021/11/26 10:04:43;;;;;;;2.72;2.00;;;17.70;52.80;;;;;;5002196;28;20116;-61
2021/11/26 10:07:08;;;;;;;2.47;2.10;;;17.70;53.00;;;;;;5000408;28;20125;-58
2021/11/26 10:09:35;;;;;;;2.95;2.22;;;17.60;52.90;;;;;;5002082;28;20030;-58
2021/11/26 10:12:14;;;;;;;4.03;2.10;;;17.70;53.00;;;;;;5000235;28;20116;-57
2021/11/26 10:14:41;;;;;;;3.08;2.30;;;17.60;52.90;;;;;;4999179;28;20030;-61
2021/11/26 10:17:19;;;;;;;4.68;2.30;;;17.60;52.90;;;;;;5000227;28;20030;-61
2021/11/26 10:19:50;;;;;;;1.95;1.83;;;17.60;53.10;;;;;;4999487;28;20072;-58
2021/11/26 10:22:24;;;;;;;2.13;1.75;;;17.60;53.00;;;;;;5000405;28;20053;-57
2021/11/26 10:25:11;;;;;;;2.72;2.40;;;17.60;53.00;;;;;;5002253;28;20539;-58
2021/11/26 10:27:47;;;;;;;2.05;1.88;;;17.60;53.00;;;;;;4997842;28;20034;-60
2021/11/26 10:30:36;;;;;;;2.20;1.95;;;17.60;53.00;;;;;;4997555;28;20045;-54
2021/11/26 10:33:04;;;;;;;3.17;2.10;;;17.60;52.90;;;;;;5000379;28;20712;-57
2021/11/26 10:35:35;;;;;;;3.47;2.08;;;17.70;52.90;;;;;;5000180;28;20038;-55
2021/11/26 10:38:04;;;;;;;2.30;2.10;;;17.60;52.90;;;;;;5001907;28;20697;-59
2021/11/26 10:40:32;;;;;;;2.33;2.10;;;17.60;52.80;;;;;;5001103;28;20030;-56
2021/11/26 10:42:58;;;;;;;2.40;2.17;;;17.60;52.90;;;;;;5001784;28;20065;-57
2021/11/26 10:45:33;;;;;;;2.08;1.80;;;17.60;53.00;;;;;;5001519;28;20080;-57
2021/11/26 10:59:03;;;;;;;2.42;2.03;;;17.40;53.30;;;;;;4998837;28;20411;-60
2021/11/26 11:01:29;;;;;;;2.47;2.20;;;17.40;53.40;;;;;;5001589;28;20034;-58
2021/11/26 11:03:54;;;;;;;2.35;2.15;;;17.50;53.40;;;;;;5001680;28;20663;-58
2021/11/26 11:06:21;;;;;;;3.60;2.08;;;17.40;53.40;;;;;;5001457;28;20491;-57
2021/11/26 11:09:02;;;;;;;2.75;1.73;;;17.50;53.30;;;;;;4999092;28;20037;-58
2021/11/26 11:11:27;;;;;;;2.50;1.80;;;17.50;53.30;;;;;;4999867;28;20097;-57
2021/11/26 11:13:53;;;;;;;2.92;1.85;;;17.50;53.20;;;;;;5001716;28;20444;-60
2021/11/26 11:16:19;;;;;;;1.45;1.27;;;17.60;53.20;;;;;;4998796;28;20060;-60
2021/11/26 11:18:44;;;;;;;2.03;1.92;;;17.60;53.00;;;;;;4999518;28;20038;-59
2021/11/26 11:21:10;;;;;;;2.92;1.80;;;17.70;53.00;;;;;;5001167;28;20530;-58
2021/11/26 11:23:36;;;;;;;2.97;1.92;;;17.70;53.00;;;;;;5001060;28;20126;-58
2021/11/26 11:26:01;;;;;;;2.10;1.90;;;17.70;52.90;;;;;;4999918;28;20670;-60
2021/11/26 11:28:27;;;;;;;2.45;1.52;;;17.80;52.90;;;;;;5016041;28;20052;-59
2021/11/26 11:30:53;;;;;;;2.92;2.03;;;17.80;52.80;;;;;;4999219;28;20033;-58
2021/11/26 11:33:19;;;;;;;3.65;1.75;;;17.80;52.80;;;;;;4999833;28;20049;-58
2021/11/26 11:35:47;;;;;;;1.98;1.73;;;17.80;52.70;;;;;;4999846;28;20514;-55
2021/11/26 11:38:13;;;;;;;2.42;2.05;;;17.80;52.80;;;;;;4982714;28;20030;-58
2021/11/26 11:40:47;;;;;;;2.17;1.98;;;17.80;52.80;;;;;;4999700;28;20022;-56
2021/11/26 11:43:13;;;;;;;2.17;1.80;;;17.80;52.80;;;;;;5002811;28;20109;-59
2021/11/26 11:45:40;;;;;;;2.03;1.83;;;17.80;52.80;;;;;;5004871;28;20049;-59
2021/11/26 11:48:06;;;;;;;1.98;1.52;;;17.80;52.80;;;;;;5005246;28;20034;-60
2021/11/26 11:50:39;;;;;;;2.08;1.83;;;17.80;52.80;;;;;;5002682;28;20033;-58
2021/11/26 11:53:04;;;;;;;2.03;1.58;;;17.80;52.80;;;;;;5004424;28;20084;-56
2021/11/26 11:55:32;;;;;;;1.65;1.55;;;17.80;52.80;;;;;;5003009;28;20030;-57
2021/11/26 11:58:18;;;;;;;1.90;1.70;;;17.80;52.80;;;;;;5004330;28;20037;-55
2021/11/26 12:00:45;;;;;;;2.05;1.85;;;17.80;52.70;;;;;;5019194;28;20123;-59
2021/11/26 12:03:19;;;;;;;2.17;1.80;;;17.80;52.70;;;;;;5004181;28;20034;-58
2021/11/26 12:05:55;;;;;;;3.03;1.80;;;17.80;52.70;;;;;;5004522;28;20050;-55
2021/11/26 12:08:20;;;;;;;2.38;1.77;;;17.80;52.70;;;;;;5004141;28;20065;-57
2021/11/26 12:10:47;;;;;;;1.92;1.55;;;17.80;52.70;;;;;;5003709;28;20061;-57
2021/11/26 12:13:38;;;;;;;2.53;1.70;;;17.80;52.70;;;;;;4996451;28;20065;-56
2021/11/26 12:16:14;;;;;;;1.75;1.40;;;17.80;52.70;;;;;;5002540;28;21073;-59
2021/11/26 12:18:48;;;;;;;2.22;1.38;;;17.80;52.70;;;;;;5004359;28;20176;-58
2021/11/26 12:21:15;;;;;;;2.53;1.73;;;17.80;52.70;;;;;;5002591;28;20026;-58
2021/11/26 12:24:00;;;;;;;1.60;1.50;;;17.80;52.70;;;;;;5001767;28;20117;-56
2021/11/26 12:26:32;;;;;;;2.17;1.58;;;17.80;52.60;;;;;;5002581;28;20026;-56
2021/11/26 12:29:05;;;;;;;2.22;1.48;;;17.80;52.60;;;;;;5003327;28;20052;-58
2021/11/26 12:31:33;;;;;;;2.03;1.60;;;17.80;52.60;;;;;;5001555;28;20117;-54
2021/11/26 12:34:04;;;;;;;1.60;1.50;;;17.80;52.60;;;;;;5003441;28;20038;-60
2021/11/26 12:36:50;;;;;;;1.98;1.63;;;17.80;52.50;;;;;;5001825;28;20589;-58
2021/11/26 12:39:24;;;;;;;2.22;2.00;;;17.80;52.50;;;;;;5002275;28;20033;-57
2021/11/26 12:41:52;;;;;;;1.88;1.55;;;17.80;52.70;;;;;;5001150;28;20061;-55
2021/11/26 12:44:21;;;;;;;1.30;1.20;;;17.80;52.40;;;;;;4992589;28;20084;-57
2021/11/26 12:46:46;;;;;;;2.65;1.80;;;17.80;52.50;;;;;;4994733;28;20104;-58
2021/11/26 12:51:46;;;;;;;1.95;1.63;;;17.70;52.40;;;;;;4993697;28;20029;-57
2021/11/26 12:54:26;;;;;;;1.70;1.60;;;17.80;52.40;;;;;;5003211;28;20054;-60
2021/11/26 12:56:52;;;;;;;2.03;1.52;;;17.80;52.40;;;;;;5029348;28;20030;-57